sensor_id;sensor_type;location;lat;lon;timestamp;temperature;humidity
69382;DHT22;56560;50.692;12.844;2023-04-07T00:01:03;-1.30;79.10
69382;DHT22;56560;50.692;12.844;2023-04-07T00:03:29;-1.30;80.30
69382;DHT22;56560;50.692;12.844;2023-04-07T00:05:54;-1.20;80.10
69382;DHT22;56560;50.692;12.844;2023-04-07T00:08:20;-1.10;80.50
69382;DHT22;56560;50.692;12.844;2023-04-07T00:10:46;-1.10;78.30
69382;DHT22;56560;50.692;12.844;2023-04-07T00:13:11;-1.10;78.30
69382;DHT22;56560;50.692;12.844;2023-04-07T00:15:37;-1.20;77.80
69382;DHT22;56560;50.692;12.844;2023-04-07T00:18:03;-1.30;77.70
69382;DHT22;56560;50.692;12.844;2023-04-07T00:20:29;-1.30;77.80
69382;DHT22;56560;50.692;12.844;2023-04-07T00:22:54;-1.30;77.70
69382;DHT22;56560;50.692;12.844;2023-04-07T00:25:20;-1.40;77.50
69382;DHT22;56560;50.692;12.844;2023-04-07T00:27:45;-1.40;78.60
69382;DHT22;56560;50.692;12.844;2023-04-07T00:30:11;-1.40;78.00
69382;DHT22;56560;50.692;12.844;2023-04-07T00:32:37;-1.40;77.80
69382;DHT22;56560;50.692;12.844;2023-04-07T00:35:03;-1.40;78.90
69382;DHT22;56560;50.692;12.844;2023-04-07T00:37:28;-1.40;78.30
69382;DHT22;56560;50.692;12.844;2023-04-07T00:39:54;-1.50;78.40
69382;DHT22;56560;50.692;12.844;2023-04-07T00:42:21;-1.60;78.40
69382;DHT22;56560;50.692;12.844;2023-04-07T00:44:47;-1.60;78.50
69382;DHT22;56560;50.692;12.844;2023-04-07T00:47:13;-1.70;78.40
69382;DHT22;56560;50.692;12.844;2023-04-07T00:49:39;-1.70;78.40
69382;DHT22;56560;50.692;12.844;2023-04-07T00:52:05;-1.70;78.40
69382;DHT22;56560;50.692;12.844;2023-04-07T00:54:32;-1.80;78.10
69382;DHT22;56560;50.692;12.844;2023-04-07T00:56:58;-1.80;78.10
69382;DHT22;56560;50.692;12.844;2023-04-07T00:59:24;-1.80;78.70
69382;DHT22;56560;50.692;12.844;2023-04-07T01:01:57;-1.80;78.00
69382;DHT22;56560;50.692;12.844;2023-04-07T01:07:04;-1.90;79.10
69382;DHT22;56560;50.692;12.844;2023-04-07T01:09:38;-2.00;78.50
69382;DHT22;56560;50.692;12.844;2023-04-07T01:14:59;-2.10;79.30
69382;DHT22;56560;50.692;12.844;2023-04-07T01:17:30;-2.10;80.10
69382;DHT22;56560;50.692;12.844;2023-04-07T01:20:05;-2.20;79.90
69382;DHT22;56560;50.692;12.844;2023-04-07T01:22:56;-2.10;79.40
69382;DHT22;56560;50.692;12.844;2023-04-07T01:30:31;-2.30;79.40
69382;DHT22;56560;50.692;12.844;2023-04-07T01:32:59;-2.30;81.30
69382;DHT22;56560;50.692;12.844;2023-04-07T01:35:28;-2.30;80.00
69382;DHT22;56560;50.692;12.844;2023-04-07T01:37:54;-2.30;80.70
69382;DHT22;56560;50.692;12.844;2023-04-07T01:40:23;-2.20;80.90
69382;DHT22;56560;50.692;12.844;2023-04-07T01:42:50;-2.20;81.00
69382;DHT22;56560;50.692;12.844;2023-04-07T01:45:17;-2.10;82.20
69382;DHT22;56560;50.692;12.844;2023-04-07T01:47:43;-2.10;79.40
69382;DHT22;56560;50.692;12.844;2023-04-07T01:50:11;-2.10;78.80
69382;DHT22;56560;50.692;12.844;2023-04-07T01:52:38;-2.20;79.00
69382;DHT22;56560;50.692;12.844;2023-04-07T01:55:05;-2.20;82.20
69382;DHT22;56560;50.692;12.844;2023-04-07T01:57:31;-2.10;83.50
69382;DHT22;56560;50.692;12.844;2023-04-07T01:59:57;-2.00;81.50
69382;DHT22;56560;50.692;12.844;2023-04-07T02:02:23;-2.00;82.70
69382;DHT22;56560;50.692;12.844;2023-04-07T02:04:54;-2.00;81.00
69382;DHT22;56560;50.692;12.844;2023-04-07T02:07:31;-2.00;81.80
69382;DHT22;56560;50.692;12.844;2023-04-07T02:10:00;-2.10;80.70
69382;DHT22;56560;50.692;12.844;2023-04-07T02:12:28;-2.10;79.80
69382;DHT22;56560;50.692;12.844;2023-04-07T02:14:55;-2.20;79.70
69382;DHT22;56560;50.692;12.844;2023-04-07T02:17:23;-2.30;79.70
69382;DHT22;56560;50.692;12.844;2023-04-07T02:19:50;-2.30;81.80
69382;DHT22;56560;50.692;12.844;2023-04-07T02:22:17;-2.20;82.70
69382;DHT22;56560;50.692;12.844;2023-04-07T02:24:43;-2.10;82.90
69382;DHT22;56560;50.692;12.844;2023-04-07T02:27:09;-2.00;80.80
69382;DHT22;56560;50.692;12.844;2023-04-07T02:29:34;-2.00;81.10
69382;DHT22;56560;50.692;12.844;2023-04-07T02:32:00;-2.00;80.70
69382;DHT22;56560;50.692;12.844;2023-04-07T02:34:26;-2.00;80.30
69382;DHT22;56560;50.692;12.844;2023-04-07T02:36:51;-2.00;80.20
69382;DHT22;56560;50.692;12.844;2023-04-07T02:39:17;-1.90;80.70
69382;DHT22;56560;50.692;12.844;2023-04-07T02:41:43;-1.90;81.90
69382;DHT22;56560;50.692;12.844;2023-04-07T02:44:08;-1.80;81.90
69382;DHT22;56560;50.692;12.844;2023-04-07T02:46:34;-1.70;81.10
69382;DHT22;56560;50.692;12.844;2023-04-07T02:49:00;-1.70;80.50
69382;DHT22;56560;50.692;12.844;2023-04-07T02:51:25;-1.60;79.50
69382;DHT22;56560;50.692;12.844;2023-04-07T02:53:51;-1.60;79.30
69382;DHT22;56560;50.692;12.844;2023-04-07T02:56:17;-1.50;78.90
69382;DHT22;56560;50.692;12.844;2023-04-07T02:58:43;-1.50;78.80
69382;DHT22;56560;50.692;12.844;2023-04-07T03:01:08;-1.50;79.10
69382;DHT22;56560;50.692;12.844;2023-04-07T03:03:34;-1.40;81.60
69382;DHT22;56560;50.692;12.844;2023-04-07T03:06:00;-1.30;80.60
69382;DHT22;56560;50.692;12.844;2023-04-07T03:08:26;-1.20;80.30
69382;DHT22;56560;50.692;12.844;2023-04-07T03:10:51;-1.20;80.00
69382;DHT22;56560;50.692;12.844;2023-04-07T03:13:20;-1.20;78.40
69382;DHT22;56560;50.692;12.844;2023-04-07T03:15:45;-1.20;77.90
69382;DHT22;56560;50.692;12.844;2023-04-07T03:18:11;-1.20;79.70
69382;DHT22;56560;50.692;12.844;2023-04-07T03:20:37;-1.20;79.20
69382;DHT22;56560;50.692;12.844;2023-04-07T03:23:06;-1.30;80.00
69382;DHT22;56560;50.692;12.844;2023-04-07T03:25:31;-1.20;79.60
69382;DHT22;56560;50.692;12.844;2023-04-07T03:27:57;-1.20;79.30
69382;DHT22;56560;50.692;12.844;2023-04-07T03:30:24;-1.20;78.70
69382;DHT22;56560;50.692;12.844;2023-04-07T03:32:49;-1.20;78.30
69382;DHT22;56560;50.692;12.844;2023-04-07T03:35:15;-1.20;78.00
69382;DHT22;56560;50.692;12.844;2023-04-07T03:37:41;-1.30;78.10
69382;DHT22;56560;50.692;12.844;2023-04-07T03:40:07;-1.30;78.50
69382;DHT22;56560;50.692;12.844;2023-04-07T03:42:32;-1.40;78.70
69382;DHT22;56560;50.692;12.844;2023-04-07T03:44:58;-1.50;79.10
69382;DHT22;56560;50.692;12.844;2023-04-07T03:47:27;-1.50;80.00
69382;DHT22;56560;50.692;12.844;2023-04-07T03:49:52;-1.60;79.00
69382;DHT22;56560;50.692;12.844;2023-04-07T03:52:18;-1.70;79.10
69382;DHT22;56560;50.692;12.844;2023-04-07T03:54:43;-1.80;79.20
69382;DHT22;56560;50.692;12.844;2023-04-07T03:57:09;-1.80;79.00
69382;DHT22;56560;50.692;12.844;2023-04-07T03:59:35;-1.80;79.20
69382;DHT22;56560;50.692;12.844;2023-04-07T04:02:01;-1.90;79.70
69382;DHT22;56560;50.692;12.844;2023-04-07T04:04:27;-2.00;79.00
69382;DHT22;56560;50.692;12.844;2023-04-07T04:06:52;-2.10;79.70
69382;DHT22;56560;50.692;12.844;2023-04-07T04:09:18;-2.10;79.60
69382;DHT22;56560;50.692;12.844;2023-04-07T04:11:45;-2.10;80.10
69382;DHT22;56560;50.692;12.844;2023-04-07T04:14:10;-2.10;80.00
69382;DHT22;56560;50.692;12.844;2023-04-07T04:16:36;-2.20;80.50
69382;DHT22;56560;50.692;12.844;2023-04-07T04:19:02;-2.30;79.60
69382;DHT22;56560;50.692;12.844;2023-04-07T04:21:27;-2.30;81.00
69382;DHT22;56560;50.692;12.844;2023-04-07T04:23:53;-2.30;79.70
69382;DHT22;56560;50.692;12.844;2023-04-07T04:26:19;-2.40;80.60
69382;DHT22;56560;50.692;12.844;2023-04-07T04:28:45;-2.40;81.20
69382;DHT22;56560;50.692;12.844;2023-04-07T04:31:11;-2.40;81.00
69382;DHT22;56560;50.692;12.844;2023-04-07T04:33:36;-2.40;81.30
69382;DHT22;56560;50.692;12.844;2023-04-07T04:36:02;-2.40;83.60
69382;DHT22;56560;50.692;12.844;2023-04-07T04:38:28;-2.30;82.00
69382;DHT22;56560;50.692;12.844;2023-04-07T04:40:53;-2.40;81.50
69382;DHT22;56560;50.692;12.844;2023-04-07T04:43:19;-2.40;81.90
69382;DHT22;56560;50.692;12.844;2023-04-07T04:45:44;-2.50;81.30
69382;DHT22;56560;50.692;12.844;2023-04-07T04:48:10;-2.50;81.30
69382;DHT22;56560;50.692;12.844;2023-04-07T04:50:36;-2.50;82.50
69382;DHT22;56560;50.692;12.844;2023-04-07T04:53:02;-2.50;81.60
69382;DHT22;56560;50.692;12.844;2023-04-07T04:55:27;-2.40;81.80
69382;DHT22;56560;50.692;12.844;2023-04-07T04:57:53;-2.40;82.60
69382;DHT22;56560;50.692;12.844;2023-04-07T05:00:19;-2.30;83.70
69382;DHT22;56560;50.692;12.844;2023-04-07T05:02:45;-2.30;82.20
69382;DHT22;56560;50.692;12.844;2023-04-07T05:05:11;-2.30;81.40
69382;DHT22;56560;50.692;12.844;2023-04-07T05:07:37;-2.20;83.10
69382;DHT22;56560;50.692;12.844;2023-04-07T05:10:05;-2.20;82.80
69382;DHT22;56560;50.692;12.844;2023-04-07T05:12:31;-2.10;82.40
69382;DHT22;56560;50.692;12.844;2023-04-07T05:14:57;-2.10;82.60
69382;DHT22;56560;50.692;12.844;2023-04-07T05:17:23;-2.10;82.50
69382;DHT22;56560;50.692;12.844;2023-04-07T05:19:48;-2.10;83.00
69382;DHT22;56560;50.692;12.844;2023-04-07T05:22:14;-2.10;82.60
69382;DHT22;56560;50.692;12.844;2023-04-07T05:24:40;-2.00;82.10
69382;DHT22;56560;50.692;12.844;2023-04-07T05:27:06;-2.00;82.80
69382;DHT22;56560;50.692;12.844;2023-04-07T05:29:32;-1.90;82.60
69382;DHT22;56560;50.692;12.844;2023-04-07T05:31:57;-1.90;82.90
69382;DHT22;56560;50.692;12.844;2023-04-07T05:34:23;-1.80;81.90
69382;DHT22;56560;50.692;12.844;2023-04-07T05:36:49;-1.70;81.60
69382;DHT22;56560;50.692;12.844;2023-04-07T05:39:15;-1.70;82.60
69382;DHT22;56560;50.692;12.844;2023-04-07T05:41:41;-1.60;83.40
69382;DHT22;56560;50.692;12.844;2023-04-07T05:44:06;-1.40;82.80
69382;DHT22;56560;50.692;12.844;2023-04-07T05:46:32;-1.40;81.30
69382;DHT22;56560;50.692;12.844;2023-04-07T05:48:57;-1.30;81.00
69382;DHT22;56560;50.692;12.844;2023-04-07T05:51:23;-1.30;81.10
69382;DHT22;56560;50.692;12.844;2023-04-07T05:53:49;-1.20;81.90
69382;DHT22;56560;50.692;12.844;2023-04-07T05:56:14;-1.10;81.10
69382;DHT22;56560;50.692;12.844;2023-04-07T05:58:40;-1.10;80.20
69382;DHT22;56560;50.692;12.844;2023-04-07T06:01:06;-1.00;81.30
69382;DHT22;56560;50.692;12.844;2023-04-07T06:03:31;-0.90;80.90
69382;DHT22;56560;50.692;12.844;2023-04-07T06:05:57;-0.80;80.40
69382;DHT22;56560;50.692;12.844;2023-04-07T06:08:23;-0.70;79.80
69382;DHT22;56560;50.692;12.844;2023-04-07T06:10:48;-0.60;79.50
69382;DHT22;56560;50.692;12.844;2023-04-07T06:13:14;-0.50;79.70
69382;DHT22;56560;50.692;12.844;2023-04-07T06:15:40;-0.40;79.70
69382;DHT22;56560;50.692;12.844;2023-04-07T06:18:05;-0.30;79.00
69382;DHT22;56560;50.692;12.844;2023-04-07T06:20:31;-0.10;78.60
69382;DHT22;56560;50.692;12.844;2023-04-07T06:22:57;0.10;78.10
69382;DHT22;56560;50.692;12.844;2023-04-07T06:25:22;0.20;77.10
69382;DHT22;56560;50.692;12.844;2023-04-07T06:27:48;0.40;77.00
69382;DHT22;56560;50.692;12.844;2023-04-07T06:30:14;0.50;76.10
69382;DHT22;56560;50.692;12.844;2023-04-07T06:32:43;0.60;75.90
69382;DHT22;56560;50.692;12.844;2023-04-07T06:35:09;0.70;75.50
69382;DHT22;56560;50.692;12.844;2023-04-07T06:37:36;0.90;75.40
69382;DHT22;56560;50.692;12.844;2023-04-07T06:40:01;1.00;74.80
69382;DHT22;56560;50.692;12.844;2023-04-07T06:42:39;1.20;73.80
69382;DHT22;56560;50.692;12.844;2023-04-07T06:45:05;1.50;73.30
69382;DHT22;56560;50.692;12.844;2023-04-07T06:47:31;1.90;72.30
69382;DHT22;56560;50.692;12.844;2023-04-07T06:49:56;2.20;71.60
69382;DHT22;56560;50.692;12.844;2023-04-07T06:52:22;2.40;70.70
69382;DHT22;56560;50.692;12.844;2023-04-07T06:54:47;2.50;70.20
69382;DHT22;56560;50.692;12.844;2023-04-07T06:57:13;2.60;70.10
69382;DHT22;56560;50.692;12.844;2023-04-07T06:59:39;2.70;69.90
69382;DHT22;56560;50.692;12.844;2023-04-07T07:02:05;2.80;69.10
69382;DHT22;56560;50.692;12.844;2023-04-07T07:04:32;3.10;67.60
69382;DHT22;56560;50.692;12.844;2023-04-07T07:06:58;3.40;66.70
69382;DHT22;56560;50.692;12.844;2023-04-07T07:09:24;3.60;65.00
69382;DHT22;56560;50.692;12.844;2023-04-07T07:11:50;3.80;64.70
69382;DHT22;56560;50.692;12.844;2023-04-07T07:14:16;4.10;64.80
69382;DHT22;56560;50.692;12.844;2023-04-07T07:16:42;4.20;63.00
69382;DHT22;56560;50.692;12.844;2023-04-07T07:19:07;4.30;62.40
69382;DHT22;56560;50.692;12.844;2023-04-07T07:21:33;4.50;63.10
69382;DHT22;56560;50.692;12.844;2023-04-07T07:23:59;4.70;62.10
69382;DHT22;56560;50.692;12.844;2023-04-07T07:26:25;4.90;61.80
69382;DHT22;56560;50.692;12.844;2023-04-07T07:28:51;5.20;60.20
69382;DHT22;56560;50.692;12.844;2023-04-07T07:31:17;5.60;59.30
69382;DHT22;56560;50.692;12.844;2023-04-07T07:33:43;5.90;57.90
69382;DHT22;56560;50.692;12.844;2023-04-07T07:36:10;6.20;57.20
69382;DHT22;56560;50.692;12.844;2023-04-07T07:38:37;6.60;56.40
69382;DHT22;56560;50.692;12.844;2023-04-07T07:41:03;6.90;55.30
69382;DHT22;56560;50.692;12.844;2023-04-07T07:43:28;7.20;54.60
69382;DHT22;56560;50.692;12.844;2023-04-07T07:45:54;7.50;54.40
69382;DHT22;56560;50.692;12.844;2023-04-07T07:48:20;7.50;53.50
69382;DHT22;56560;50.692;12.844;2023-04-07T07:50:45;7.40;52.60
69382;DHT22;56560;50.692;12.844;2023-04-07T07:53:12;7.40;49.90
69382;DHT22;56560;50.692;12.844;2023-04-07T07:55:37;7.30;49.20
69382;DHT22;56560;50.692;12.844;2023-04-07T07:58:03;7.30;49.70
69382;DHT22;56560;50.692;12.844;2023-04-07T08:00:29;7.30;49.70
69382;DHT22;56560;50.692;12.844;2023-04-07T08:02:54;7.30;50.30
69382;DHT22;56560;50.692;12.844;2023-04-07T08:05:20;7.40;49.60
69382;DHT22;56560;50.692;12.844;2023-04-07T08:07:46;7.50;49.00
69382;DHT22;56560;50.692;12.844;2023-04-07T08:10:13;7.70;47.90
69382;DHT22;56560;50.692;12.844;2023-04-07T08:12:39;7.90;46.60
69382;DHT22;56560;50.692;12.844;2023-04-07T08:15:05;7.80;46.90
69382;DHT22;56560;50.692;12.844;2023-04-07T08:17:34;7.80;45.90
69382;DHT22;56560;50.692;12.844;2023-04-07T08:20:00;7.80;46.80
69382;DHT22;56560;50.692;12.844;2023-04-07T08:22:26;7.90;48.10
69382;DHT22;56560;50.692;12.844;2023-04-07T08:24:52;8.10;46.60
69382;DHT22;56560;50.692;12.844;2023-04-07T08:27:17;8.50;46.30
69382;DHT22;56560;50.692;12.844;2023-04-07T08:29:43;8.80;46.30
69382;DHT22;56560;50.692;12.844;2023-04-07T08:32:09;9.10;45.30
69382;DHT22;56560;50.692;12.844;2023-04-07T08:34:35;9.50;45.50
69382;DHT22;56560;50.692;12.844;2023-04-07T08:37:01;9.60;44.20
69382;DHT22;56560;50.692;12.844;2023-04-07T08:39:27;9.60;44.20
69382;DHT22;56560;50.692;12.844;2023-04-07T08:41:54;9.60;44.00
69382;DHT22;56560;50.692;12.844;2023-04-07T08:44:22;9.40;44.30
69382;DHT22;56560;50.692;12.844;2023-04-07T08:46:50;9.50;44.50
69382;DHT22;56560;50.692;12.844;2023-04-07T08:49:18;9.60;44.20
69382;DHT22;56560;50.692;12.844;2023-04-07T08:51:45;9.80;43.60
69382;DHT22;56560;50.692;12.844;2023-04-07T08:54:16;9.80;41.90
69382;DHT22;56560;50.692;12.844;2023-04-07T08:56:44;9.80;42.50
69382;DHT22;56560;50.692;12.844;2023-04-07T08:59:11;10.00;42.30
69382;DHT22;56560;50.692;12.844;2023-04-07T09:01:38;10.30;41.50
69382;DHT22;56560;50.692;12.844;2023-04-07T09:04:05;10.40;40.60
69382;DHT22;56560;50.692;12.844;2023-04-07T09:06:32;10.50;41.50
69382;DHT22;56560;50.692;12.844;2023-04-07T09:09:02;10.60;40.50
69382;DHT22;56560;50.692;12.844;2023-04-07T09:11:35;10.70;40.10
69382;DHT22;56560;50.692;12.844;2023-04-07T09:14:00;10.90;40.00
69382;DHT22;56560;50.692;12.844;2023-04-07T09:16:28;11.30;40.40
69382;DHT22;56560;50.692;12.844;2023-04-07T09:18:53;11.60;38.50
69382;DHT22;56560;50.692;12.844;2023-04-07T09:21:19;11.80;37.00
69382;DHT22;56560;50.692;12.844;2023-04-07T09:23:46;11.80;36.60
69382;DHT22;56560;50.692;12.844;2023-04-07T09:26:24;11.60;37.30
69382;DHT22;56560;50.692;12.844;2023-04-07T09:28:57;11.80;37.30
69382;DHT22;56560;50.692;12.844;2023-04-07T09:31:44;12.30;35.60
69382;DHT22;56560;50.692;12.844;2023-04-07T09:36:56;12.90;34.70
69382;DHT22;56560;50.692;12.844;2023-04-07T09:39:23;12.90;35.00
69382;DHT22;56560;50.692;12.844;2023-04-07T09:41:49;12.70;33.70
69382;DHT22;56560;50.692;12.844;2023-04-07T09:44:19;12.60;35.30
69382;DHT22;56560;50.692;12.844;2023-04-07T09:46:50;12.70;34.50
69382;DHT22;56560;50.692;12.844;2023-04-07T09:49:16;12.50;33.90
69382;DHT22;56560;50.692;12.844;2023-04-07T09:52:01;12.40;34.90
69382;DHT22;56560;50.692;12.844;2023-04-07T09:57:01;12.30;34.10
69382;DHT22;56560;50.692;12.844;2023-04-07T09:59:28;12.50;34.30
69382;DHT22;56560;50.692;12.844;2023-04-07T10:01:55;12.70;33.10
69382;DHT22;56560;50.692;12.844;2023-04-07T10:04:21;12.70;32.70
69382;DHT22;56560;50.692;12.844;2023-04-07T10:06:47;12.30;33.90
69382;DHT22;56560;50.692;12.844;2023-04-07T10:09:22;12.40;35.20
69382;DHT22;56560;50.692;12.844;2023-04-07T10:11:49;12.70;34.90
69382;DHT22;56560;50.692;12.844;2023-04-07T10:14:16;12.90;34.90
69382;DHT22;56560;50.692;12.844;2023-04-07T10:16:42;12.90;35.40
69382;DHT22;56560;50.692;12.844;2023-04-07T10:19:09;13.10;34.80
69382;DHT22;56560;50.692;12.844;2023-04-07T10:21:38;13.40;34.00
69382;DHT22;56560;50.692;12.844;2023-04-07T10:26:34;13.20;33.80
69382;DHT22;56560;50.692;12.844;2023-04-07T10:29:09;13.30;34.60
69382;DHT22;56560;50.692;12.844;2023-04-07T10:31:37;13.80;34.50
69382;DHT22;56560;50.692;12.844;2023-04-07T10:34:03;13.80;33.70
69382;DHT22;56560;50.692;12.844;2023-04-07T10:36:30;14.10;32.60
69382;DHT22;56560;50.692;12.844;2023-04-07T10:41:38;14.70;32.80
69382;DHT22;56560;50.692;12.844;2023-04-07T10:44:05;14.90;32.60
69382;DHT22;56560;50.692;12.844;2023-04-07T10:49:25;15.30;30.20
69382;DHT22;56560;50.692;12.844;2023-04-07T10:54:36;15.40;32.00
69382;DHT22;56560;50.692;12.844;2023-04-07T10:59:30;15.80;30.50
69382;DHT22;56560;50.692;12.844;2023-04-07T11:02:29;16.00;30.80
69382;DHT22;56560;50.692;12.844;2023-04-07T11:04:54;15.90;31.80
69382;DHT22;56560;50.692;12.844;2023-04-07T11:07:50;16.00;30.60
69382;DHT22;56560;50.692;12.844;2023-04-07T11:10:16;16.00;30.60
69382;DHT22;56560;50.692;12.844;2023-04-07T11:12:43;16.10;30.60
69382;DHT22;56560;50.692;12.844;2023-04-07T11:15:20;16.20;29.80
69382;DHT22;56560;50.692;12.844;2023-04-07T11:18:16;16.10;30.30
69382;DHT22;56560;50.692;12.844;2023-04-07T11:20:52;16.10;30.80
69382;DHT22;56560;50.692;12.844;2023-04-07T11:23:20;16.10;31.50
69382;DHT22;56560;50.692;12.844;2023-04-07T11:25:48;16.30;30.30
69382;DHT22;56560;50.692;12.844;2023-04-07T11:28:14;16.40;31.00
69382;DHT22;56560;50.692;12.844;2023-04-07T11:30:46;16.40;29.80
69382;DHT22;56560;50.692;12.844;2023-04-07T11:33:16;16.60;29.80
69382;DHT22;56560;50.692;12.844;2023-04-07T11:35:52;16.60;29.80
69382;DHT22;56560;50.692;12.844;2023-04-07T11:38:20;16.30;29.80
69382;DHT22;56560;50.692;12.844;2023-04-07T11:40:46;16.50;30.10
69382;DHT22;56560;50.692;12.844;2023-04-07T11:45:42;16.20;30.50
69382;DHT22;56560;50.692;12.844;2023-04-07T11:48:28;16.00;30.80
69382;DHT22;56560;50.692;12.844;2023-04-07T11:50:54;16.00;29.60
69382;DHT22;56560;50.692;12.844;2023-04-07T11:56:07;15.80;30.00
69382;DHT22;56560;50.692;12.844;2023-04-07T11:58:35;16.00;30.00
69382;DHT22;56560;50.692;12.844;2023-04-07T12:01:03;16.30;29.70
69382;DHT22;56560;50.692;12.844;2023-04-07T12:03:32;16.20;29.20
69382;DHT22;56560;50.692;12.844;2023-04-07T12:05:59;15.80;29.40
69382;DHT22;56560;50.692;12.844;2023-04-07T12:08:43;15.20;30.60
69382;DHT22;56560;50.692;12.844;2023-04-07T12:11:09;15.30;31.00
69382;DHT22;56560;50.692;12.844;2023-04-07T12:13:36;15.60;30.30
69382;DHT22;56560;50.692;12.844;2023-04-07T12:16:01;15.90;30.60
69382;DHT22;56560;50.692;12.844;2023-04-07T12:18:28;16.00;29.90
69382;DHT22;56560;50.692;12.844;2023-04-07T12:20:54;15.80;29.80
69382;DHT22;56560;50.692;12.844;2023-04-07T12:23:20;15.90;30.00
69382;DHT22;56560;50.692;12.844;2023-04-07T12:25:46;16.10;30.20
69382;DHT22;56560;50.692;12.844;2023-04-07T12:28:12;15.60;29.20
69382;DHT22;56560;50.692;12.844;2023-04-07T12:30:37;15.30;29.80
69382;DHT22;56560;50.692;12.844;2023-04-07T12:33:03;15.10;30.50
69382;DHT22;56560;50.692;12.844;2023-04-07T12:35:29;14.90;30.50
69382;DHT22;56560;50.692;12.844;2023-04-07T12:37:55;15.20;31.10
69382;DHT22;56560;50.692;12.844;2023-04-07T12:40:24;15.40;31.00
69382;DHT22;56560;50.692;12.844;2023-04-07T12:42:50;15.10;31.60
69382;DHT22;56560;50.692;12.844;2023-04-07T12:45:16;14.90;32.50
69382;DHT22;56560;50.692;12.844;2023-04-07T12:47:43;14.90;32.10
69382;DHT22;56560;50.692;12.844;2023-04-07T12:50:09;15.20;32.30
69382;DHT22;56560;50.692;12.844;2023-04-07T12:52:35;15.30;31.30
69382;DHT22;56560;50.692;12.844;2023-04-07T12:55:01;15.30;31.20
69382;DHT22;56560;50.692;12.844;2023-04-07T12:57:27;15.10;31.30
69382;DHT22;56560;50.692;12.844;2023-04-07T12:59:53;15.20;31.50
69382;DHT22;56560;50.692;12.844;2023-04-07T13:02:19;15.20;31.10
69382;DHT22;56560;50.692;12.844;2023-04-07T13:04:45;15.30;30.80
69382;DHT22;56560;50.692;12.844;2023-04-07T13:07:14;15.40;31.50
69382;DHT22;56560;50.692;12.844;2023-04-07T13:09:41;15.80;30.80
69382;DHT22;56560;50.692;12.844;2023-04-07T13:12:11;16.10;31.10
69382;DHT22;56560;50.692;12.844;2023-04-07T13:14:38;16.30;31.30
69382;DHT22;56560;50.692;12.844;2023-04-07T13:17:05;16.20;31.60
69382;DHT22;56560;50.692;12.844;2023-04-07T13:19:31;16.40;30.90
69382;DHT22;56560;50.692;12.844;2023-04-07T13:21:56;16.40;31.20
69382;DHT22;56560;50.692;12.844;2023-04-07T13:24:22;16.40;30.50
69382;DHT22;56560;50.692;12.844;2023-04-07T13:26:49;16.70;30.70
69382;DHT22;56560;50.692;12.844;2023-04-07T13:29:16;16.90;30.00
69382;DHT22;56560;50.692;12.844;2023-04-07T13:31:41;17.20;29.90
69382;DHT22;56560;50.692;12.844;2023-04-07T13:34:07;17.30;29.30
69382;DHT22;56560;50.692;12.844;2023-04-07T13:36:32;17.00;30.10
69382;DHT22;56560;50.692;12.844;2023-04-07T13:38:58;17.10;30.60
69382;DHT22;56560;50.692;12.844;2023-04-07T13:41:24;17.10;30.50
69382;DHT22;56560;50.692;12.844;2023-04-07T13:43:51;17.50;30.40
69382;DHT22;56560;50.692;12.844;2023-04-07T13:46:16;17.90;30.20
69382;DHT22;56560;50.692;12.844;2023-04-07T13:48:45;18.20;29.90
69382;DHT22;56560;50.692;12.844;2023-04-07T13:51:11;18.70;29.20
69382;DHT22;56560;50.692;12.844;2023-04-07T13:53:37;19.20;28.50
69382;DHT22;56560;50.692;12.844;2023-04-07T13:56:02;19.90;27.60
69382;DHT22;56560;50.692;12.844;2023-04-07T13:58:30;20.20;27.70
69382;DHT22;56560;50.692;12.844;2023-04-07T14:00:56;20.10;26.90
69382;DHT22;56560;50.692;12.844;2023-04-07T14:03:21;19.30;28.20
69382;DHT22;56560;50.692;12.844;2023-04-07T14:05:47;18.80;28.40
69382;DHT22;56560;50.692;12.844;2023-04-07T14:08:13;18.50;29.90
69382;DHT22;56560;50.692;12.844;2023-04-07T14:10:39;18.50;28.80
69382;DHT22;56560;50.692;12.844;2023-04-07T14:13:05;18.50;29.10
69382;DHT22;56560;50.692;12.844;2023-04-07T14:15:31;18.20;28.80
69382;DHT22;56560;50.692;12.844;2023-04-07T14:17:58;17.80;28.90
69382;DHT22;56560;50.692;12.844;2023-04-07T14:20:25;17.50;28.50
69382;DHT22;56560;50.692;12.844;2023-04-07T14:22:51;17.10;28.90
69382;DHT22;56560;50.692;12.844;2023-04-07T14:25:17;17.50;29.70
69382;DHT22;56560;50.692;12.844;2023-04-07T14:27:42;17.80;29.40
69382;DHT22;56560;50.692;12.844;2023-04-07T14:30:08;17.30;28.70
69382;DHT22;56560;50.692;12.844;2023-04-07T14:32:34;16.70;29.50
69382;DHT22;56560;50.692;12.844;2023-04-07T14:35:00;16.60;30.30
69382;DHT22;56560;50.692;12.844;2023-04-07T14:37:27;17.20;30.70
69382;DHT22;56560;50.692;12.844;2023-04-07T14:39:53;17.90;29.20
69382;DHT22;56560;50.692;12.844;2023-04-07T14:42:19;18.00;29.20
69382;DHT22;56560;50.692;12.844;2023-04-07T14:44:45;17.70;28.20
69382;DHT22;56560;50.692;12.844;2023-04-07T14:47:11;16.70;29.10
69382;DHT22;56560;50.692;12.844;2023-04-07T14:49:37;16.80;29.30
69382;DHT22;56560;50.692;12.844;2023-04-07T14:52:03;16.60;29.70
69382;DHT22;56560;50.692;12.844;2023-04-07T14:54:29;16.70;30.40
69382;DHT22;56560;50.692;12.844;2023-04-07T14:56:55;17.00;30.20
69382;DHT22;56560;50.692;12.844;2023-04-07T14:59:20;16.60;30.10
69382;DHT22;56560;50.692;12.844;2023-04-07T15:01:46;16.00;31.20
69382;DHT22;56560;50.692;12.844;2023-04-07T15:04:12;15.60;32.00
69382;DHT22;56560;50.692;12.844;2023-04-07T15:06:40;15.20;32.50
69382;DHT22;56560;50.692;12.844;2023-04-07T15:09:07;15.10;32.90
69382;DHT22;56560;50.692;12.844;2023-04-07T15:11:33;15.10;32.40
69382;DHT22;56560;50.692;12.844;2023-04-07T15:13:58;15.00;32.60
69382;DHT22;56560;50.692;12.844;2023-04-07T15:16:25;14.90;32.20
69382;DHT22;56560;50.692;12.844;2023-04-07T15:18:50;14.90;32.10
69382;DHT22;56560;50.692;12.844;2023-04-07T15:21:16;15.00;32.60
69382;DHT22;56560;50.692;12.844;2023-04-07T15:23:45;14.90;32.90
69382;DHT22;56560;50.692;12.844;2023-04-07T15:26:11;15.00;32.20
69382;DHT22;56560;50.692;12.844;2023-04-07T15:28:37;15.00;32.40
69382;DHT22;56560;50.692;12.844;2023-04-07T15:31:04;14.90;32.50
69382;DHT22;56560;50.692;12.844;2023-04-07T15:33:38;14.80;33.00
69382;DHT22;56560;50.692;12.844;2023-04-07T15:36:08;14.70;33.30
69382;DHT22;56560;50.692;12.844;2023-04-07T15:38:34;14.60;33.70
69382;DHT22;56560;50.692;12.844;2023-04-07T15:41:00;14.50;33.70
69382;DHT22;56560;50.692;12.844;2023-04-07T15:43:25;14.50;34.10
69382;DHT22;56560;50.692;12.844;2023-04-07T15:45:54;14.40;34.30
69382;DHT22;56560;50.692;12.844;2023-04-07T15:48:20;14.00;35.20
69382;DHT22;56560;50.692;12.844;2023-04-07T15:50:45;13.70;36.40